Time;durP1;ratioP1;P1;durP2;ratioP2;P2;SDS_P1;SDS_P2;PMS_P1;PMS_P2;Temp;Humidity;BMP_temperature;BMP_pressure;BME280_temperature;BME280_humidity;BME280_pressure;Samples;Min_cycle;Max_cycle;Signal;HPM_P1;HPM_P2
2022/06/17 00:01:19;;;;;;;5.00;4.57;;;;;;;;;;4975531;28;20403;-53
2022/06/17 00:03:45;;;;;;;5.10;4.70;;;;;;;;;;4975233;28;20399;-53
2022/06/17 00:06:12;;;;;;;5.83;5.23;;;;;;;;;;4975330;28;20398;-53
2022/06/17 00:08:44;;;;;;;5.00;4.60;;;;;;;;;;4975391;28;20525;-54
2022/06/17 00:11:15;;;;;;;8.17;5.60;;;;;;;;;;4975420;28;20387;-52
2022/06/17 00:13:41;;;;;;;7.43;4.97;;;;;;;;;;4975237;28;20424;-53
2022/06/17 00:16:11;;;;;;;6.70;4.90;;;;;;;;;;4975324;28;20379;-53
2022/06/17 00:18:37;;;;;;;6.27;5.00;;;;;;;;;;4974501;28;20411;-52
2022/06/17 00:21:04;;;;;;;5.93;4.90;;;;;;;;;;4974736;28;20752;-52
2022/06/17 00:23:30;;;;;;;7.27;5.70;;;;;;;;;;4974841;28;20432;-53
2022/06/17 00:25:56;;;;;;;8.50;6.20;;;;;;;;;;4975109;28;20409;-53
2022/06/17 00:28:23;;;;;;;10.23;6.90;;;;;;;;;;4974962;28;20976;-54
2022/06/17 00:30:49;;;;;;;9.27;6.40;;;;;;;;;;4974683;28;20496;-52
2022/06/17 00:33:18;;;;;;;8.40;6.60;;;;;;;;;;4974708;28;20527;-53
2022/06/17 00:35:53;;;;;;;9.47;6.00;;;;;;;;;;4974922;28;20380;-53
2022/06/17 00:38:45;;;;;;;8.50;6.97;;;;;;;;;;4974898;28;20408;-53
2022/06/17 00:41:16;;;;;;;10.30;6.70;;;;;;;;;;4972808;28;20407;-53
2022/06/17 00:43:44;;;;;;;12.83;6.40;;;;;;;;;;4974444;28;20772;-52
2022/06/17 00:46:12;;;;;;;10.90;6.37;;;;;;;;;;4974782;28;20379;-53
2022/06/17 00:48:41;;;;;;;9.97;6.17;;;;;;;;;;4974595;28;20457;-53
2022/06/17 00:51:16;;;;;;;11.17;6.47;;;;;;;;;;4974566;28;20384;-52
2022/06/17 00:53:46;;;;;;;15.10;6.97;;;;;;;;;;4974265;28;20467;-53
2022/06/17 00:56:12;;;;;;;12.93;7.47;;;;;;;;;;4974698;28;20419;-53
2022/06/17 00:58:55;;;;;;;15.17;7.10;;;;;;;;;;4974487;28;20387;-53
2022/06/17 01:01:24;;;;;;;9.70;6.70;;;;;;;;;;4974414;28;20459;-53
2022/06/17 01:03:52;;;;;;;12.50;7.30;;;;;;;;;;4973556;28;20406;-53
2022/06/17 01:06:20;;;;;;;12.73;7.90;;;;;;;;;;4973780;28;20417;-53
2022/06/17 01:11:33;;;;;;;13.33;7.37;;;;;;;;;;4974130;28;20378;-52
2022/06/17 01:14:00;;;;;;;13.80;6.40;;;;;;;;;;4974084;28;20542;-53
2022/06/17 01:16:28;;;;;;;10.50;5.93;;;;;;;;;;4974069;28;20894;-52
2022/06/17 01:18:55;;;;;;;11.53;6.50;;;;;;;;;;4974077;28;20404;-53
2022/06/17 01:21:43;;;;;;;8.20;6.50;;;;;;;;;;4974005;28;20781;-52
2022/06/17 01:24:10;;;;;;;9.90;6.40;;;;;;;;;;4974018;28;20464;-52
2022/06/17 01:26:36;;;;;;;6.63;5.87;;;;;;;;;;4974025;28;20402;-52
2022/06/17 01:29:02;;;;;;;9.10;7.27;;;;;;;;;;4973752;28;20452;-52
2022/06/17 01:31:29;;;;;;;9.13;7.07;;;;;;;;;;4973155;28;20380;-52
2022/06/17 01:33:55;;;;;;;13.57;7.10;;;;;;;;;;4973645;28;20391;-53
2022/06/17 01:36:21;;;;;;;12.43;7.73;;;;;;;;;;4973828;28;20379;-53
2022/06/17 01:38:48;;;;;;;14.20;7.97;;;;;;;;;;4973674;28;20428;-54
2022/06/17 01:41:16;;;;;;;12.40;7.50;;;;;;;;;;4973566;28;20401;-53
2022/06/17 01:43:52;;;;;;;8.80;6.47;;;;;;;;;;4973337;28;20796;-53
2022/06/17 01:46:26;;;;;;;10.27;6.13;;;;;;;;;;4973565;28;20379;-53
2022/06/17 01:48:54;;;;;;;7.87;5.70;;;;;;;;;;4972281;28;20500;-53
2022/06/17 01:51:22;;;;;;;7.40;6.70;;;;;;;;;;4973479;28;20405;-53
2022/06/17 01:53:50;;;;;;;7.13;5.67;;;;;;;;;;4973174;28;20424;-54
2022/06/17 01:56:18;;;;;;;6.30;5.67;;;;;;;;;;4973583;28;20756;-53
2022/06/17 01:58:50;;;;;;;8.33;6.03;;;;;;;;;;4973448;28;20410;-53
2022/06/17 02:01:16;;;;;;;6.50;5.90;;;;;;;;;;4973299;28;20499;-53
2022/06/17 02:03:51;;;;;;;8.17;6.60;;;;;;;;;;4973139;28;20452;-53
2022/06/17 02:06:20;;;;;;;6.63;5.80;;;;;;;;;;4973268;28;20404;-52
2022/06/17 02:08:46;;;;;;;8.40;6.17;;;;;;;;;;4973254;28;20772;-52
2022/06/17 02:11:13;;;;;;;5.77;5.27;;;;;;;;;;4973349;28;20391;-52
2022/06/17 02:13:39;;;;;;;5.60;4.87;;;;;;;;;;4972994;28;20434;-53
2022/06/17 02:16:06;;;;;;;10.87;6.60;;;;;;;;;;4973225;28;20404;-54
2022/06/17 02:18:33;;;;;;;6.90;5.60;;;;;;;;;;4973163;28;20927;-52
2022/06/17 02:21:00;;;;;;;11.07;5.93;;;;;;;;;;4973134;28;20452;-53
2022/06/17 02:23:27;;;;;;;6.13;5.37;;;;;;;;;;4971548;28;20515;-54
2022/06/17 02:25:53;;;;;;;6.17;5.57;;;;;;;;;;4973243;28;20424;-52
2022/06/17 02:28:20;;;;;;;7.53;6.23;;;;;;;;;;4973022;28;20448;-53
2022/06/17 02:30:47;;;;;;;7.87;5.60;;;;;;;;;;4972535;28;20378;-54
2022/06/17 02:33:13;;;;;;;7.27;5.57;;;;;;;;;;4972999;28;20452;-53
2022/06/17 02:38:45;;;;;;;7.17;6.47;;;;;;;;;;4973334;28;20762;-53
2022/06/17 02:41:17;;;;;;;8.07;6.13;;;;;;;;;;4972936;28;20373;-52
2022/06/17 02:43:45;;;;;;;7.67;5.67;;;;;;;;;;4975519;28;20937;-53
2022/06/17 02:46:14;;;;;;;8.73;6.33;;;;;;;;;;4976881;28;20398;-52
2022/06/17 02:49:06;;;;;;;7.03;6.23;;;;;;;;;;4976792;28;20816;-53
2022/06/17 02:51:34;;;;;;;6.70;5.80;;;;;;;;;;4974788;28;20391;-53
2022/06/17 02:54:00;;;;;;;9.20;6.70;;;;;;;;;;4976520;28;20378;-52
2022/06/17 02:56:28;;;;;;;11.43;6.40;;;;;;;;;;4976685;28;20374;-54
2022/06/17 02:59:11;;;;;;;7.60;6.70;;;;;;;;;;4976753;28;20439;-54
2022/06/17 03:01:38;;;;;;;6.50;5.90;;;;;;;;;;4975234;28;20953;-53
2022/06/17 03:04:16;;;;;;;6.90;6.30;;;;;;;;;;4976442;28;20454;-52
2022/06/17 03:06:43;;;;;;;10.00;6.40;;;;;;;;;;4976519;28;20473;-52
2022/06/17 03:09:38;;;;;;;6.70;5.30;;;;;;;;;;4976430;28;20446;-53
2022/06/17 03:12:04;;;;;;;9.00;6.10;;;;;;;;;;4967679;28;20414;-52
2022/06/17 03:14:31;;;;;;;6.13;5.27;;;;;;;;;;4976239;28;20498;-53
2022/06/17 03:16:59;;;;;;;6.47;5.47;;;;;;;;;;4976245;28;20386;-53
2022/06/17 03:19:27;;;;;;;8.37;7.63;;;;;;;;;;4976276;28;20415;-53
2022/06/17 03:21:53;;;;;;;8.30;6.70;;;;;;;;;;4976135;28;20435;-53
2022/06/17 03:24:23;;;;;;;7.73;6.10;;;;;;;;;;4976176;28;20450;-53
2022/06/17 03:26:54;;;;;;;7.50;6.80;;;;;;;;;;4976289;28;20472;-53
2022/06/17 03:29:22;;;;;;;9.10;7.00;;;;;;;;;;4976103;28;20445;-53
2022/06/17 03:31:56;;;;;;;6.70;5.87;;;;;;;;;;4976258;28;20389;-52
2022/06/17 03:34:24;;;;;;;6.60;5.97;;;;;;;;;;4976018;28;20409;-52
2022/06/17 03:36:50;;;;;;;8.40;6.17;;;;;;;;;;4975992;28;20436;-52
2022/06/17 03:39:21;;;;;;;7.73;6.53;;;;;;;;;;4976062;28;20441;-52
2022/06/17 03:41:53;;;;;;;9.73;7.30;;;;;;;;;;4975673;28;20414;-53
2022/06/17 03:44:21;;;;;;;7.27;6.50;;;;;;;;;;4975653;28;20470;-52
2022/06/17 03:46:56;;;;;;;8.17;6.87;;;;;;;;;;4975829;28;20416;-52
2022/06/17 03:49:26;;;;;;;8.43;7.47;;;;;;;;;;4975788;28;20433;-53
2022/06/17 03:51:55;;;;;;;8.17;6.93;;;;;;;;;;4975672;28;20466;-53
2022/06/17 03:54:21;;;;;;;9.70;6.37;;;;;;;;;;4974055;28;20780;-53
2022/06/17 03:56:50;;;;;;;7.20;6.50;;;;;;;;;;4975698;28;20384;-53
2022/06/17 03:59:18;;;;;;;7.23;5.97;;;;;;;;;;4975564;28;20539;-53
2022/06/17 04:01:46;;;;;;;8.00;6.37;;;;;;;;;;4975415;28;20398;-53
2022/06/17 04:04:16;;;;;;;7.13;6.43;;;;;;;;;;4975947;28;20387;-53
2022/06/17 04:06:44;;;;;;;9.80;6.87;;;;;;;;;;4975577;28;20415;-53
2022/06/17 04:09:15;;;;;;;7.00;6.13;;;;;;;;;;4975408;28;20437;-53
2022/06/17 04:11:44;;;;;;;7.47;6.23;;;;;;;;;;4975281;28;20421;-53
2022/06/17 04:14:22;;;;;;;6.50;5.90;;;;;;;;;;4975164;28;20455;-53
2022/06/17 04:16:52;;;;;;;7.13;6.40;;;;;;;;;;4975338;28;20414;-54
2022/06/17 04:19:20;;;;;;;9.53;6.13;;;;;;;;;;4975262;28;20386;-53
2022/06/17 04:21:46;;;;;;;11.73;7.23;;;;;;;;;;4975076;28;20871;-54
2022/06/17 04:24:14;;;;;;;7.10;6.40;;;;;;;;;;4974976;28;20414;-53
2022/06/17 04:26:41;;;;;;;6.10;5.50;;;;;;;;;;4975109;28;20375;-53
2022/06/17 04:29:08;;;;;;;7.10;6.03;;;;;;;;;;4974975;28;20433;-53
2022/06/17 04:31:34;;;;;;;8.33;6.10;;;;;;;;;;4974936;28;20419;-53
2022/06/17 04:34:00;;;;;;;7.23;6.53;;;;;;;;;;4974688;28;20386;-52
2022/06/17 04:36:30;;;;;;;7.97;5.30;;;;;;;;;;4974925;28;20380;-52
2022/06/17 04:38:58;;;;;;;8.00;5.50;;;;;;;;;;4974900;28;20380;-55
2022/06/17 04:41:25;;;;;;;6.57;5.80;;;;;;;;;;4974808;28;20453;-53
2022/06/17 04:43:53;;;;;;;7.83;5.73;;;;;;;;;;4974463;28;20509;-53
2022/06/17 04:46:28;;;;;;;8.10;5.90;;;;;;;;;;4974778;28;20458;-53
2022/06/17 04:48:57;;;;;;;5.33;4.83;;;;;;;;;;4974550;28;20434;-52
2022/06/17 04:51:23;;;;;;;6.57;5.97;;;;;;;;;;4975194;28;20383;-54
2022/06/17 04:53:49;;;;;;;6.17;5.67;;;;;;;;;;4974283;28;20910;-53
2022/06/17 04:56:19;;;;;;;9.13;6.60;;;;;;;;;;4974488;28;20385;-53
2022/06/17 04:58:44;;;;;;;9.67;7.00;;;;;;;;;;4974504;28;20389;-53
2022/06/17 05:01:17;;;;;;;11.17;7.80;;;;;;;;;;4974330;28;20402;-53
2022/06/17 05:03:43;;;;;;;8.47;6.73;;;;;;;;;;4974318;28;20427;-53
2022/06/17 05:06:10;;;;;;;12.13;8.03;;;;;;;;;;4973808;28;20425;-53
2022/06/17 05:08:39;;;;;;;12.07;9.37;;;;;;;;;;4974283;28;20473;-53
2022/06/17 05:11:07;;;;;;;12.47;10.07;;;;;;;;;;4974133;28;20471;-53
2022/06/17 05:13:33;;;;;;;18.07;10.63;;;;;;;;;;4973924;28;20861;-52
2022/06/17 05:16:00;;;;;;;15.10;9.73;;;;;;;;;;4974189;28;20512;-53
2022/06/17 05:18:26;;;;;;;10.63;9.23;;;;;;;;;;4974261;28;20375;-52
2022/06/17 05:20:52;;;;;;;13.10;10.23;;;;;;;;;;4974047;28;20391;-52
2022/06/17 05:23:18;;;;;;;12.27;9.67;;;;;;;;;;4973896;28;20478;-53
2022/06/17 05:25:46;;;;;;;13.40;10.27;;;;;;;;;;4974001;28;20455;-53
2022/06/17 05:28:17;;;;;;;14.83;8.13;;;;;;;;;;4973859;28;20419;-53
2022/06/17 05:30:45;;;;;;;10.60;8.17;;;;;;;;;;4973893;28;20418;-53
2022/06/17 05:33:12;;;;;;;9.70;7.20;;;;;;;;;;4973625;28;20991;-53
2022/06/17 05:35:38;;;;;;;9.60;7.43;;;;;;;;;;4974149;28;20402;-53
2022/06/17 05:38:04;;;;;;;11.33;7.23;;;;;;;;;;4973792;28;20900;-53
2022/06/17 05:40:32;;;;;;;17.23;5.90;;;;;;;;;;4973620;28;20976;-52
2022/06/17 05:42:58;;;;;;;6.83;5.10;;;;;;;;;;4972033;28;20438;-54
2022/06/17 05:45:25;;;;;;;8.87;7.00;;;;;;;;;;4973663;28;20409;-53
2022/06/17 05:47:52;;;;;;;9.00;7.60;;;;;;;;;;4973561;28;20458;-53
2022/06/17 05:50:19;;;;;;;10.30;7.70;;;;;;;;;;4973652;28;20377;-53
2022/06/17 05:52:54;;;;;;;8.60;6.97;;;;;;;;;;4973260;28;20978;-53
2022/06/17 05:55:21;;;;;;;10.37;6.70;;;;;;;;;;4973462;28;20389;-53
2022/06/17 05:57:47;;;;;;;6.80;6.00;;;;;;;;;;4973455;28;20407;-54
2022/06/17 06:00:14;;;;;;;6.60;5.93;;;;;;;;;;4973412;28;20462;-53
2022/06/17 06:02:40;;;;;;;9.87;5.90;;;;;;;;;;4973131;28;20461;-54
2022/06/17 06:05:06;;;;;;;5.83;5.00;;;;;;;;;;4973334;28;20444;-54
2022/06/17 06:07:32;;;;;;;14.43;5.93;;;;;;;;;;4973316;28;20463;-54
2022/06/17 06:09:58;;;;;;;7.40;5.13;;;;;;;;;;4973132;28;20401;-53
2022/06/17 06:12:53;;;;;;;8.40;5.23;;;;;;;;;;4973016;28;20950;-55
2022/06/17 06:15:12;;;;;;;13.73;4.87;;;;;;;;;;4973025;28;20493;-54
2022/06/17 06:17:38;;;;;;;6.47;4.57;;;;;;;;;;4972495;28;20791;-53
2022/06/17 06:20:04;;;;;;;5.67;4.83;;;;;;;;;;4973678;28;20861;-56
2022/06/17 06:22:30;;;;;;;4.97;4.47;;;;;;;;;;4973658;28;20461;-56
2022/06/17 06:24:57;;;;;;;4.43;3.90;;;;;;;;;;4973766;28;20488;-53
2022/06/17 06:27:23;;;;;;;6.70;5.17;;;;;;;;;;4972823;28;20416;-54
2022/06/17 06:29:49;;;;;;;6.70;5.20;;;;;;;;;;4972829;28;20941;-53
2022/06/17 06:32:15;;;;;;;4.70;4.30;;;;;;;;;;4973053;28;20515;-53
2022/06/17 06:34:42;;;;;;;9.30;4.10;;;;;;;;;;4972953;28;20409;-53
2022/06/17 06:37:08;;;;;;;5.33;3.80;;;;;;;;;;4972982;28;20411;-53
2022/06/17 06:39:34;;;;;;;2.93;2.73;;;;;;;;;;4973002;28;20486;-56
2022/06/17 06:42:00;;;;;;;3.30;3.00;;;;;;;;;;4972740;28;20441;-53
2022/06/17 06:44:26;;;;;;;3.67;3.47;;;;;;;;;;4972811;28;20461;-53
2022/06/17 06:46:52;;;;;;;4.63;4.23;;;;;;;;;;4972900;28;20850;-53
2022/06/17 06:49:18;;;;;;;3.40;3.00;;;;;;;;;;4972717;28;20544;-54
2022/06/17 06:51:44;;;;;;;5.20;4.00;;;;;;;;;;4972375;28;20502;-53
2022/06/17 06:54:10;;;;;;;10.53;4.33;;;;;;;;;;4972567;28;20462;-53
2022/06/17 06:56:36;;;;;;;3.63;3.33;;;;;;;;;;4972754;28;20886;-54
2022/06/17 06:59:02;;;;;;;3.70;2.73;;;;;;;;;;4972822;28;20837;-55
2022/06/17 07:01:28;;;;;;;5.47;3.37;;;;;;;;;;4972748;28;20405;-55
2022/06/17 07:03:53;;;;;;;3.17;2.87;;;;;;;;;;4972440;28;20531;-53
2022/06/17 07:06:22;;;;;;;2.93;2.73;;;;;;;;;;4972702;28;20424;-53
2022/06/17 07:08:48;;;;;;;3.20;2.90;;;;;;;;;;4972611;28;20456;-53
2022/06/17 07:11:16;;;;;;;3.10;2.80;;;;;;;;;;4972585;28;20462;-54
2022/06/17 07:13:43;;;;;;;2.43;2.33;;;;;;;;;;4972388;28;20458;-53
2022/06/17 07:16:10;;;;;;;3.87;3.20;;;;;;;;;;4971365;28;20956;-55
2022/06/17 07:18:37;;;;;;;3.47;3.13;;;;;;;;;;4973059;28;20420;-53
2022/06/17 07:21:04;;;;;;;3.40;2.63;;;;;;;;;;4972505;28;20887;-53
2022/06/17 07:23:37;;;;;;;4.20;2.80;;;;;;;;;;4972241;28;20427;-53
2022/06/17 07:26:05;;;;;;;2.40;2.23;;;;;;;;;;4972511;28;20912;-53
2022/06/17 07:28:32;;;;;;;3.43;3.13;;;;;;;;;;4973383;28;20463;-53
2022/06/17 07:30:58;;;;;;;2.97;2.57;;;;;;;;;;4976283;28;20538;-55
2022/06/17 07:33:26;;;;;;;2.23;2.03;;;;;;;;;;4974465;28;20435;-52
2022/06/17 07:35:55;;;;;;;3.87;3.20;;;;;;;;;;4976099;28;20503;-53
2022/06/17 07:41:07;;;;;;;5.23;2.80;;;;;;;;;;4976151;28;20412;-53
2022/06/17 07:43:34;;;;;;;4.70;2.47;;;;;;;;;;4975476;28;20454;-53
2022/06/17 07:46:00;;;;;;;2.97;2.77;;;;;;;;;;4975845;28;20496;-53
2022/06/17 07:48:27;;;;;;;2.90;2.80;;;;;;;;;;4975796;28;20463;-53
2022/06/17 07:50:53;;;;;;;7.60;3.10;;;;;;;;;;4975918;28;20401;-53
2022/06/17 07:53:19;;;;;;;3.67;3.30;;;;;;;;;;4975462;28;20916;-52
2022/06/17 07:55:45;;;;;;;3.30;2.50;;;;;;;;;;4976163;28;20403;-53
2022/06/17 07:58:13;;;;;;;2.80;2.60;;;;;;;;;;4975553;28;20413;-53
2022/06/17 08:00:41;;;;;;;3.27;2.30;;;;;;;;;;4974313;28;20502;-53
2022/06/17 08:03:07;;;;;;;2.47;2.27;;;;;;;;;;4975054;28;20480;-53
2022/06/17 08:05:35;;;;;;;2.90;2.70;;;;;;;;;;4973843;28;20413;-53
2022/06/17 08:08:03;;;;;;;2.53;2.33;;;;;;;;;;4975379;28;20452;-54
2022/06/17 08:10:30;;;;;;;2.43;2.13;;;;;;;;;;4975423;28;20818;-53
2022/06/17 08:12:56;;;;;;;4.30;2.43;;;;;;;;;;4975042;28;20433;-53
2022/06/17 08:15:22;;;;;;;2.53;2.30;;;;;;;;;;4975407;28;20524;-53
2022/06/17 08:17:49;;;;;;;3.50;3.13;;;;;;;;;;4975395;28;20780;-54
2022/06/17 08:20:22;;;;;;;2.40;2.20;;;;;;;;;;4975250;28;20404;-53
2022/06/17 08:22:48;;;;;;;2.57;2.30;;;;;;;;;;4975004;28;20817;-54
2022/06/17 08:25:15;;;;;;;2.67;2.10;;;;;;;;;;4975013;28;20431;-54
2022/06/17 08:27:45;;;;;;;2.10;1.90;;;;;;;;;;4975077;28;20496;-54
2022/06/17 08:30:12;;;;;;;5.73;2.47;;;;;;;;;;4975092;28;20409;-55
2022/06/17 08:32:48;;;;;;;3.30;2.57;;;;;;;;;;4974736;28;20996;-54
2022/06/17 08:35:22;;;;;;;3.00;2.13;;;;;;;;;;4974641;28;20403;-55
2022/06/17 08:37:51;;;;;;;2.10;1.83;;;;;;;;;;4974927;28;20428;-57
2022/06/17 08:40:26;;;;;;;2.80;2.00;;;;;;;;;;4973875;28;20927;-55
2022/06/17 08:43:12;;;;;;;2.70;2.33;;;;;;;;;;4974466;28;20519;-55
2022/06/17 08:45:47;;;;;;;2.97;2.20;;;;;;;;;;4964631;28;20413;-55
2022/06/17 08:48:13;;;;;;;2.60;2.07;;;;;;;;;;4974645;28;20455;-56
2022/06/17 08:50:39;;;;;;;2.70;2.30;;;;;;;;;;4974634;28;20404;-54
2022/06/17 08:53:30;;;;;;;2.60;1.87;;;;;;;;;;4972815;28;20292;-55
2022/06/17 08:56:08;;;;;;;2.03;1.93;;;;;;;;;;4974660;28;20653;-56
2022/06/17 08:58:53;;;;;;;2.20;2.00;;;;;;;;;;4974452;28;20408;-57
2022/06/17 09:01:19;;;;;;;2.10;1.90;;;;;;;;;;4974407;28;20893;-55
2022/06/17 09:04:03;;;;;;;4.17;2.07;;;;;;;;;;4973948;28;20435;-55
2022/06/17 09:06:29;;;;;;;2.23;1.90;;;;;;;;;;4974317;28;20574;-56
2022/06/17 09:09:01;;;;;;;1.80;1.67;;;;;;;;;;4974242;28;20452;-56
2022/06/17 09:11:36;;;;;;;3.33;1.90;;;;;;;;;;4974327;28;20173;-55
2022/06/17 09:14:11;;;;;;;2.27;2.00;;;;;;;;;;4974076;28;20411;-54
2022/06/17 09:16:43;;;;;;;3.03;2.13;;;;;;;;;;4974192;28;20401;-55
2022/06/17 09:19:11;;;;;;;2.57;2.37;;;;;;;;;;4974153;28;20405;-55
2022/06/17 09:21:46;;;;;;;2.73;1.80;;;;;;;;;;4972625;28;20413;-55
2022/06/17 09:24:16;;;;;;;2.50;2.30;;;;;;;;;;4973910;28;20534;-55
2022/06/17 09:26:51;;;;;;;4.23;1.87;;;;;;;;;;4974561;28;20439;-55
2022/06/17 09:29:26;;;;;;;3.87;2.10;;;;;;;;;;4974032;28;20912;-55
2022/06/17 09:31:56;;;;;;;2.77;2.13;;;;;;;;;;4973796;28;20460;-55
2022/06/17 09:34:26;;;;;;;2.30;1.70;;;;;;;;;;4973760;28;20401;-54
2022/06/17 09:36:56;;;;;;;3.07;2.07;;;;;;;;;;4973814;28;20401;-56
2022/06/17 09:39:29;;;;;;;2.43;2.10;;;;;;;;;;4973511;28;20401;-55
2022/06/17 09:42:04;;;;;;;2.53;2.30;;;;;;;;;;4973567;28;20433;-54
2022/06/17 09:44:34;;;;;;;2.93;2.33;;;;;;;;;;4973717;28;20408;-55
2022/06/17 09:47:18;;;;;;;2.20;2.00;;;;;;;;;;4972937;28;20413;-54
2022/06/17 09:49:50;;;;;;;4.13;1.80;;;;;;;;;;4973219;28;20987;-56
2022/06/17 09:52:19;;;;;;;2.27;1.90;;;;;;;;;;4953910;28;20432;-55
2022/06/17 09:54:48;;;;;;;1.67;1.57;;;;;;;;;;4954187;29;20413;-57
2022/06/17 09:57:29;;;;;;;2.80;1.70;;;;;;;;;;4954131;29;20465;-56
2022/06/17 09:59:57;;;;;;;1.73;1.57;;;;;;;;;;4954023;28;20414;-55
2022/06/17 10:02:23;;;;;;;1.90;1.80;;;;;;;;;;4953674;29;20453;-57
2022/06/17 10:04:52;;;;;;;1.63;1.53;;;;;;;;;;4953952;29;20898;-55
2022/06/17 10:07:26;;;;;;;2.50;2.03;;;;;;;;;;4954005;29;20174;-56
2022/06/17 10:10:04;;;;;;;2.93;2.00;;;;;;;;;;4953726;29;20816;-56
2022/06/17 10:12:33;;;;;;;3.00;2.30;;;;;;;;;;4970721;28;20952;-59
2022/06/17 10:15:09;;;;;;;2.10;1.73;;;;;;;;;;4974831;28;20496;-59
2022/06/17 10:22:51;;;;;;;3.33;1.70;;;;;;;;;;5419421;23;20231;-55
2022/06/17 10:25:24;;;;;;;1.80;1.70;;;;;;;;;;4984139;28;20959;-56
2022/06/17 10:27:53;;;;;;;1.67;1.50;;;;;;;;;;4973200;28;20905;-56
2022/06/17 10:30:37;;;;;;;3.77;2.00;;;;;;;;;;4972986;28;20436;-56
2022/06/17 10:33:03;;;;;;;2.40;1.60;;;;;;;;;;4972927;28;20424;-57
2022/06/17 10:35:31;;;;;;;2.80;1.50;;;;;;;;;;4973020;28;20492;-56
2022/06/17 10:38:01;;;;;;;2.40;1.30;;;;;;;;;;4972708;28;20420;-57
2022/06/17 10:40:29;;;;;;;2.60;1.40;;;;;;;;;;4973635;28;20409;-56
2022/06/17 10:42:57;;;;;;;2.17;1.60;;;;;;;;;;4972319;28;20429;-56
2022/06/17 10:45:24;;;;;;;1.63;1.40;;;;;;;;;;4972617;28;21081;-55
2022/06/17 10:47:54;;;;;;;1.50;1.40;;;;;;;;;;4972287;28;21002;-57
2022/06/17 10:50:22;;;;;;;3.30;1.50;;;;;;;;;;4972832;28;20413;-57
2022/06/17 10:53:08;;;;;;;1.93;1.53;;;;;;;;;;4972459;28;20417;-57
2022/06/17 10:55:37;;;;;;;1.47;1.37;;;;;;;;;;4972783;28;20556;-56
2022/06/17 10:58:05;;;;;;;1.50;1.30;;;;;;;;;;4972841;28;20409;-56
2022/06/17 11:00:32;;;;;;;2.33;1.33;;;;;;;;;;4972704;28;20779;-56
2022/06/17 11:03:15;;;;;;;2.27;1.43;;;;;;;;;;4972636;28;20511;-55
2022/06/17 11:05:41;;;;;;;1.30;1.20;;;;;;;;;;4976433;28;20409;-57
2022/06/17 11:08:19;;;;;;;1.77;1.67;;;;;;;;;;4976538;28;20807;-56
2022/06/17 11:10:51;;;;;;;3.87;1.60;;;;;;;;;;4976609;28;20491;-56
2022/06/17 11:13:17;;;;;;;1.53;1.43;;;;;;;;;;4976311;28;20428;-55
2022/06/17 11:15:56;;;;;;;3.00;1.43;;;;;;;;;;4976888;28;20408;-55
2022/06/17 11:18:26;;;;;;;1.50;1.40;;;;;;;;;;4976405;28;20466;-56
2022/06/17 11:20:54;;;;;;;10.53;1.80;;;;;;;;;;4976209;28;20408;-56
2022/06/17 11:23:20;;;;;;;3.10;1.50;;;;;;;;;;4976126;28;20466;-58
2022/06/17 11:25:47;;;;;;;1.63;1.50;;;;;;;;;;4976189;28;20460;-54
2022/06/17 11:28:32;;;;;;;1.40;1.30;;;;;;;;;;4976158;28;20512;-55
2022/06/17 11:31:00;;;;;;;1.90;1.80;;;;;;;;;;4976444;28;20836;-54
2022/06/17 11:33:40;;;;;;;1.83;1.70;;;;;;;;;;4975938;28;20424;-54
2022/06/17 11:36:15;;;;;;;4.77;1.80;;;;;;;;;;4976045;28;20459;-54
2022/06/17 11:38:41;;;;;;;1.97;1.77;;;;;;;;;;4976065;28;20462;-54
2022/06/17 11:41:09;;;;;;;2.07;1.87;;;;;;;;;;4975820;28;20500;-55
2022/06/17 11:43:41;;;;;;;3.10;1.60;;;;;;;;;;4975770;28;20987;-55
2022/06/17 11:46:37;;;;;;;3.37;1.70;;;;;;;;;;4975922;28;20401;-54
2022/06/17 11:49:10;;;;;;;5.60;1.63;;;;;;;;;;4963151;28;20460;-57
2022/06/17 11:51:41;;;;;;;3.73;1.50;;;;;;;;;;4975315;28;20687;-55
2022/06/17 11:54:09;;;;;;;2.80;2.03;;;;;;;;;;4975753;28;20935;-56
2022/06/17 11:56:37;;;;;;;1.40;1.27;;;;;;;;;;4975622;28;20401;-59
2022/06/17 11:59:15;;;;;;;2.33;1.50;;;;;;;;;;4975701;28;20405;-57
2022/06/17 12:01:43;;;;;;;1.53;1.43;;;;;;;;;;4975780;28;20520;-58
2022/06/17 12:04:27;;;;;;;5.07;1.60;;;;;;;;;;4975414;28;20471;-56
2022/06/17 12:06:55;;;;;;;1.17;1.07;;;;;;;;;;4975519;28;20503;-56
2022/06/17 12:09:30;;;;;;;1.50;1.40;;;;;;;;;;4975660;28;20460;-57
2022/06/17 12:12:01;;;;;;;1.40;1.13;;;;;;;;;;4975138;28;20916;-57
2022/06/17 12:14:49;;;;;;;7.00;1.60;;;;;;;;;;4975301;28;20440;-56
2022/06/17 12:17:16;;;;;;;1.33;1.23;;;;;;;;;;4975312;28;20413;-59
2022/06/17 12:19:42;;;;;;;1.37;1.27;;;;;;;;;;4975375;28;20413;-57
2022/06/17 12:22:14;;;;;;;1.93;1.27;;;;;;;;;;4974918;28;20441;-57
2022/06/17 12:24:44;;;;;;;3.63;1.40;;;;;;;;;;4975176;28;20471;-57
2022/06/17 12:27:33;;;;;;;3.20;1.37;;;;;;;;;;4975154;28;20467;-56
2022/06/17 12:30:02;;;;;;;5.80;1.60;;;;;;;;;;4967363;28;20433;-56
2022/06/17 12:32:32;;;;;;;1.63;1.53;;;;;;;;;;4974777;28;20425;-56
2022/06/17 12:35:03;;;;;;;2.10;1.30;;;;;;;;;;4975127;28;20407;-55
2022/06/17 12:37:35;;;;;;;2.63;1.80;;;;;;;;;;4974966;28;20417;-56
2022/06/17 12:40:06;;;;;;;1.60;1.50;;;;;;;;;;4974769;28;20409;-55
2022/06/17 12:42:40;;;;;;;1.77;1.67;;;;;;;;;;4974590;28;20761;-54
2022/06/17 12:45:29;;;;;;;2.90;1.43;;;;;;;;;;4975157;28;20416;-55
2022/06/17 12:48:02;;;;;;;1.60;1.50;;;;;;;;;;4966804;28;20472;-57
2022/06/17 12:53:31;;;;;;;1.33;1.20;;;;;;;;;;4974374;28;20460;-54
2022/06/17 12:56:33;;;;;;;2.23;1.53;;;;;;;;;;4974455;28;20405;-55
2022/06/17 12:59:05;;;;;;;1.80;1.70;;;;;;;;;;4914752;29;20474;-55
2022/06/17 13:01:31;;;;;;;4.23;1.50;;;;;;;;;;4964855;28;20840;-55
2022/06/17 13:04:09;;;;;;;4.33;1.53;;;;;;;;;;4974429;28;20473;-56
2022/06/17 13:06:40;;;;;;;2.40;1.50;;;;;;;;;;4974425;28;20173;-56
2022/06/17 13:09:33;;;;;;;1.40;1.30;;;;;;;;;;4974167;28;20542;-55
2022/06/17 13:12:13;;;;;;;1.30;1.10;;;;;;;;;;4971396;28;20433;-54
2022/06/17 13:14:57;;;;;;;5.93;1.37;;;;;;;;;;4974339;28;20415;-54
2022/06/17 13:17:32;;;;;;;1.20;1.10;;;;;;;;;;4974426;28;20409;-54
2022/06/17 13:20:04;;;;;;;1.30;1.20;;;;;;;;;;4974326;28;20400;-55
2022/06/17 13:22:39;;;;;;;1.47;1.30;;;;;;;;;;4973932;28;20433;-54
2022/06/17 13:25:24;;;;;;;2.50;1.37;;;;;;;;;;4974084;28;20428;-55
2022/06/17 13:28:06;;;;;;;1.10;0.90;;;;;;;;;;4973524;28;20400;-56
2022/06/17 13:30:45;;;;;;;6.73;1.60;;;;;;;;;;4973252;28;20409;-57
2022/06/17 13:33:34;;;;;;;1.20;1.00;;;;;;;;;;4979235;28;20431;-56
2022/06/17 13:36:10;;;;;;;2.23;1.33;;;;;;;;;;4966496;28;20444;-55
2022/06/17 13:38:36;;;;;;;1.10;1.00;;;;;;;;;;4973937;28;20812;-56
2022/06/17 13:41:02;;;;;;;2.83;1.10;;;;;;;;;;4973818;28;20405;-55
2022/06/17 13:43:31;;;;;;;1.30;1.20;;;;;;;;;;4973241;28;20252;-54
2022/06/17 13:46:03;;;;;;;2.47;1.00;;;;;;;;;;4973600;28;20408;-54
2022/06/17 13:48:44;;;;;;;1.20;1.10;;;;;;;;;;4971887;28;20496;-56
2022/06/17 13:51:22;;;;;;;1.23;1.07;;;;;;;;;;4971923;28;20401;-56
2022/06/17 13:54:07;;;;;;;1.37;1.27;;;;;;;;;;4972127;28;20449;-57
2022/06/17 13:56:33;;;;;;;0.87;0.87;;;;;;;;;;4972239;28;20784;-55
2022/06/17 13:59:02;;;;;;;1.20;0.90;;;;;;;;;;4972485;28;20413;-55
2022/06/17 14:01:32;;;;;;;1.57;1.47;;;;;;;;;;4973395;28;20182;-55
2022/06/17 14:04:01;;;;;;;1.43;1.20;;;;;;;;;;4973416;28;20808;-55
2022/06/17 14:06:30;;;;;;;1.63;1.07;;;;;;;;;;4973336;28;20409;-56
2022/06/17 14:08:58;;;;;;;0.93;0.83;;;;;;;;;;4973117;28;20480;-55
2022/06/17 14:11:39;;;;;;;1.03;1.00;;;;;;;;;;4972576;28;20445;-58
2022/06/17 14:14:21;;;;;;;1.20;1.10;;;;;;;;;;4972397;28;20920;-55
2022/06/17 14:17:10;;;;;;;3.83;1.60;;;;;;;;;;4973355;28;20440;-55
2022/06/17 14:19:47;;;;;;;1.20;1.10;;;;;;;;;;4973211;28;20432;-58
2022/06/17 14:22:21;;;;;;;1.50;1.10;;;;;;;;;;4972755;28;20425;-56
2022/06/17 14:24:47;;;;;;;2.00;1.40;;;;;;;;;;4973009;28;20435;-57
2022/06/17 14:27:33;;;;;;;1.30;1.03;;;;;;;;;;4973053;28;20417;-58
2022/06/17 14:30:18;;;;;;;1.53;1.43;;;;;;;;;;4972833;28;20308;-55
2022/06/17 14:32:45;;;;;;;1.30;1.20;;;;;;;;;;4972218;28;20420;-55
2022/06/17 14:35:28;;;;;;;3.77;1.80;;;;;;;;;;4973047;28;20499;-57
2022/06/17 14:38:13;;;;;;;1.80;1.70;;;;;;;;;;4972585;28;20455;-55
2022/06/17 14:43:29;;;;;;;4.93;2.13;;;;;;;;;;4972624;28;20432;-54
2022/06/17 14:45:59;;;;;;;1.50;1.40;;;;;;;;;;4972947;28;20888;-55
2022/06/17 14:48:27;;;;;;;4.60;2.00;;;;;;;;;;4972801;28;20535;-55
2022/06/17 14:50:55;;;;;;;1.60;1.50;;;;;;;;;;4972749;28;20412;-56
2022/06/17 14:53:23;;;;;;;1.73;1.37;;;;;;;;;;4972506;28;20475;-56
2022/06/17 14:55:56;;;;;;;1.47;1.37;;;;;;;;;;4973070;28;20524;-55
2022/06/17 14:58:22;;;;;;;1.30;1.13;;;;;;;;;;4972691;28;20405;-57
2022/06/17 15:00:53;;;;;;;1.57;1.47;;;;;;;;;;4972717;28;20401;-57
2022/06/17 15:03:21;;;;;;;1.30;1.20;;;;;;;;;;4972200;28;20435;-55
2022/06/17 15:05:48;;;;;;;1.83;1.30;;;;;;;;;;4972601;28;20404;-55
2022/06/17 15:08:14;;;;;;;2.73;1.50;;;;;;;;;;4972616;28;20456;-55
2022/06/17 15:10:41;;;;;;;2.57;1.50;;;;;;;;;;4972625;28;20408;-54
2022/06/17 15:15:57;;;;;;;1.30;1.20;;;;;;;;;;4972709;28;20447;-57
2022/06/17 15:18:23;;;;;;;1.80;1.17;;;;;;;;;;4972536;28;20396;-56
2022/06/17 15:20:51;;;;;;;1.93;1.20;;;;;;;;;;4972511;28;20768;-57
2022/06/17 15:23:32;;;;;;;2.17;1.23;;;;;;;;;;4972221;28;20287;-55